sensor_id;sensor_type;location;lat;lon;timestamp;temperature;humidity
7234;DHT22;3658;47.992;10.158;2023-03-01T00:01:12;19.80;34.40
7234;DHT22;3658;47.992;10.158;2023-03-01T00:03:39;19.80;34.30
7234;DHT22;3658;47.992;10.158;2023-03-01T00:06:06;19.80;34.20
7234;DHT22;3658;47.992;10.158;2023-03-01T00:08:33;19.80;34.10
7234;DHT22;3658;47.992;10.158;2023-03-01T00:11:03;19.80;34.10
7234;DHT22;3658;47.992;10.158;2023-03-01T00:13:31;19.70;34.00
7234;DHT22;3658;47.992;10.158;2023-03-01T00:15:58;19.70;33.90
7234;DHT22;3658;47.992;10.158;2023-03-01T00:18:25;19.70;33.80
7234;DHT22;3658;47.992;10.158;2023-03-01T00:20:53;19.70;33.70
7234;DHT22;3658;47.992;10.158;2023-03-01T00:23:20;19.70;33.70
7234;DHT22;3658;47.992;10.158;2023-03-01T00:25:47;19.70;33.60
7234;DHT22;3658;47.992;10.158;2023-03-01T00:28:16;19.70;33.60
7234;DHT22;3658;47.992;10.158;2023-03-01T00:30:43;19.70;33.60
7234;DHT22;3658;47.992;10.158;2023-03-01T00:33:10;19.70;33.50
7234;DHT22;3658;47.992;10.158;2023-03-01T00:35:37;19.70;33.40
7234;DHT22;3658;47.992;10.158;2023-03-01T00:38:04;19.70;33.50
7234;DHT22;3658;47.992;10.158;2023-03-01T00:40:34;19.70;34.10
7234;DHT22;3658;47.992;10.158;2023-03-01T00:43:02;19.70;33.50
7234;DHT22;3658;47.992;10.158;2023-03-01T00:45:30;19.70;33.40
7234;DHT22;3658;47.992;10.158;2023-03-01T00:47:57;19.70;33.40
7234;DHT22;3658;47.992;10.158;2023-03-01T00:50:25;19.70;33.40
7234;DHT22;3658;47.992;10.158;2023-03-01T00:52:52;19.70;33.20
7234;DHT22;3658;47.992;10.158;2023-03-01T00:55:19;19.70;33.20
7234;DHT22;3658;47.992;10.158;2023-03-01T00:57:46;19.70;33.20
7234;DHT22;3658;47.992;10.158;2023-03-01T01:00:14;19.70;33.20
7234;DHT22;3658;47.992;10.158;2023-03-01T01:02:43;19.70;33.10
7234;DHT22;3658;47.992;10.158;2023-03-01T01:05:10;19.70;33.10
7234;DHT22;3658;47.992;10.158;2023-03-01T01:07:37;19.70;33.20
7234;DHT22;3658;47.992;10.158;2023-03-01T01:10:05;19.70;33.10
7234;DHT22;3658;47.992;10.158;2023-03-01T01:12:33;19.70;33.10
7234;DHT22;3658;47.992;10.158;2023-03-01T01:14:59;19.70;33.10
7234;DHT22;3658;47.992;10.158;2023-03-01T01:17:26;19.70;33.10
7234;DHT22;3658;47.992;10.158;2023-03-01T01:19:55;19.70;33.00
7234;DHT22;3658;47.992;10.158;2023-03-01T01:22:22;19.70;33.00
7234;DHT22;3658;47.992;10.158;2023-03-01T01:24:49;19.70;33.00
7234;DHT22;3658;47.992;10.158;2023-03-01T01:27:15;19.70;32.90
7234;DHT22;3658;47.992;10.158;2023-03-01T01:29:42;19.70;32.90
7234;DHT22;3658;47.992;10.158;2023-03-01T01:32:09;19.70;32.90
7234;DHT22;3658;47.992;10.158;2023-03-01T01:34:36;19.70;32.80
7234;DHT22;3658;47.992;10.158;2023-03-01T01:37:04;19.70;32.70
7234;DHT22;3658;47.992;10.158;2023-03-01T01:39:33;19.70;32.70
7234;DHT22;3658;47.992;10.158;2023-03-01T01:42:00;19.70;32.80
7234;DHT22;3658;47.992;10.158;2023-03-01T01:44:29;19.60;32.70
7234;DHT22;3658;47.992;10.158;2023-03-01T01:46:59;19.70;32.80
7234;DHT22;3658;47.992;10.158;2023-03-01T01:49:31;19.70;32.90
7234;DHT22;3658;47.992;10.158;2023-03-01T01:52:07;19.70;32.80
7234;DHT22;3658;47.992;10.158;2023-03-01T01:54:40;19.60;32.70
7234;DHT22;3658;47.992;10.158;2023-03-01T01:57:12;19.60;32.70
7234;DHT22;3658;47.992;10.158;2023-03-01T01:59:43;19.60;32.70
7234;DHT22;3658;47.992;10.158;2023-03-01T02:02:13;19.70;32.70
7234;DHT22;3658;47.992;10.158;2023-03-01T02:04:40;19.60;32.60
7234;DHT22;3658;47.992;10.158;2023-03-01T02:07:13;19.60;32.50
7234;DHT22;3658;47.992;10.158;2023-03-01T02:09:42;19.60;32.50
7234;DHT22;3658;47.992;10.158;2023-03-01T02:12:13;19.60;32.50
7234;DHT22;3658;47.992;10.158;2023-03-01T02:14:40;19.60;32.50
7234;DHT22;3658;47.992;10.158;2023-03-01T02:17:07;19.60;32.50
7234;DHT22;3658;47.992;10.158;2023-03-01T02:19:46;19.60;32.40
7234;DHT22;3658;47.992;10.158;2023-03-01T02:22:22;19.60;32.40
7234;DHT22;3658;47.992;10.158;2023-03-01T02:24:59;19.60;32.50
7234;DHT22;3658;47.992;10.158;2023-03-01T02:27:33;19.60;32.40
7234;DHT22;3658;47.992;10.158;2023-03-01T02:30:04;19.60;32.40
7234;DHT22;3658;47.992;10.158;2023-03-01T02:32:32;19.60;32.40
7234;DHT22;3658;47.992;10.158;2023-03-01T02:34:58;19.60;32.40
7234;DHT22;3658;47.992;10.158;2023-03-01T02:37:26;19.60;32.30
7234;DHT22;3658;47.992;10.158;2023-03-01T02:39:58;19.60;32.40
7234;DHT22;3658;47.992;10.158;2023-03-01T02:42:28;19.60;32.40
7234;DHT22;3658;47.992;10.158;2023-03-01T02:44:57;19.60;32.40
7234;DHT22;3658;47.992;10.158;2023-03-01T02:47:25;19.60;32.30
7234;DHT22;3658;47.992;10.158;2023-03-01T02:49:53;19.60;32.30
7234;DHT22;3658;47.992;10.158;2023-03-01T02:52:34;19.60;32.20
7234;DHT22;3658;47.992;10.158;2023-03-01T02:55:06;19.60;32.20
7234;DHT22;3658;47.992;10.158;2023-03-01T02:57:37;19.60;32.30
7234;DHT22;3658;47.992;10.158;2023-03-01T03:00:07;19.60;32.30
7234;DHT22;3658;47.992;10.158;2023-03-01T03:02:46;19.60;32.30
7234;DHT22;3658;47.992;10.158;2023-03-01T03:05:15;19.60;32.30
7234;DHT22;3658;47.992;10.158;2023-03-01T03:07:44;19.60;32.30
7234;DHT22;3658;47.992;10.158;2023-03-01T03:10:14;19.60;32.20
7234;DHT22;3658;47.992;10.158;2023-03-01T03:12:41;19.60;32.30
7234;DHT22;3658;47.992;10.158;2023-03-01T03:15:10;19.60;32.20
7234;DHT22;3658;47.992;10.158;2023-03-01T03:17:40;19.50;32.20
7234;DHT22;3658;47.992;10.158;2023-03-01T03:20:11;19.50;32.20
7234;DHT22;3658;47.992;10.158;2023-03-01T03:22:44;19.50;32.20
7234;DHT22;3658;47.992;10.158;2023-03-01T03:25:12;19.50;32.10
7234;DHT22;3658;47.992;10.158;2023-03-01T03:27:40;19.50;32.10
7234;DHT22;3658;47.992;10.158;2023-03-01T03:30:12;19.50;32.10
7234;DHT22;3658;47.992;10.158;2023-03-01T03:32:40;19.50;32.70
7234;DHT22;3658;47.992;10.158;2023-03-01T03:35:10;19.50;32.00
7234;DHT22;3658;47.992;10.158;2023-03-01T03:37:37;19.50;32.10
7234;DHT22;3658;47.992;10.158;2023-03-01T03:40:22;19.50;32.10
7234;DHT22;3658;47.992;10.158;2023-03-01T03:42:49;19.50;32.10
7234;DHT22;3658;47.992;10.158;2023-03-01T03:45:16;19.50;32.00
7234;DHT22;3658;47.992;10.158;2023-03-01T03:47:43;19.50;32.00
7234;DHT22;3658;47.992;10.158;2023-03-01T03:50:13;19.50;32.10
7234;DHT22;3658;47.992;10.158;2023-03-01T03:52:41;19.50;32.10
7234;DHT22;3658;47.992;10.158;2023-03-01T03:55:10;19.40;32.10
7234;DHT22;3658;47.992;10.158;2023-03-01T03:57:37;19.50;32.10
7234;DHT22;3658;47.992;10.158;2023-03-01T04:00:07;19.50;32.00
7234;DHT22;3658;47.992;10.158;2023-03-01T04:02:38;19.50;31.90
7234;DHT22;3658;47.992;10.158;2023-03-01T04:05:06;19.50;31.90
7234;DHT22;3658;47.992;10.158;2023-03-01T04:07:35;19.50;31.90
7234;DHT22;3658;47.992;10.158;2023-03-01T04:10:04;19.50;31.90
7234;DHT22;3658;47.992;10.158;2023-03-01T04:12:32;19.50;31.90
7234;DHT22;3658;47.992;10.158;2023-03-01T04:14:59;19.50;31.90
7234;DHT22;3658;47.992;10.158;2023-03-01T04:17:26;19.50;32.00
7234;DHT22;3658;47.992;10.158;2023-03-01T04:19:53;19.50;32.00
7234;DHT22;3658;47.992;10.158;2023-03-01T04:22:20;19.50;31.90
7234;DHT22;3658;47.992;10.158;2023-03-01T04:24:48;19.50;31.90
7234;DHT22;3658;47.992;10.158;2023-03-01T04:27:15;19.40;31.90
7234;DHT22;3658;47.992;10.158;2023-03-01T04:29:42;19.40;31.90
7234;DHT22;3658;47.992;10.158;2023-03-01T04:32:09;19.40;31.90
7234;DHT22;3658;47.992;10.158;2023-03-01T04:34:36;19.40;31.90
7234;DHT22;3658;47.992;10.158;2023-03-01T04:37:03;19.40;31.90
7234;DHT22;3658;47.992;10.158;2023-03-01T04:39:31;19.40;31.90
7234;DHT22;3658;47.992;10.158;2023-03-01T04:42:00;19.40;31.90
7234;DHT22;3658;47.992;10.158;2023-03-01T04:44:27;19.40;31.80
7234;DHT22;3658;47.992;10.158;2023-03-01T04:46:54;19.40;31.90
7234;DHT22;3658;47.992;10.158;2023-03-01T04:49:20;19.40;31.90
7234;DHT22;3658;47.992;10.158;2023-03-01T04:51:48;19.40;31.90
7234;DHT22;3658;47.992;10.158;2023-03-01T04:54:15;19.40;31.90
7234;DHT22;3658;47.992;10.158;2023-03-01T04:56:41;19.40;31.90
7234;DHT22;3658;47.992;10.158;2023-03-01T04:59:10;19.40;32.00
7234;DHT22;3658;47.992;10.158;2023-03-01T05:01:38;19.40;32.00
7234;DHT22;3658;47.992;10.158;2023-03-01T05:04:08;19.40;32.00
7234;DHT22;3658;47.992;10.158;2023-03-01T05:06:38;19.40;31.90
7234;DHT22;3658;47.992;10.158;2023-03-01T05:09:06;19.40;32.00
7234;DHT22;3658;47.992;10.158;2023-03-01T05:11:33;19.40;31.90
7234;DHT22;3658;47.992;10.158;2023-03-01T05:14:01;19.40;32.00
7234;DHT22;3658;47.992;10.158;2023-03-01T05:16:30;19.40;32.00
7234;DHT22;3658;47.992;10.158;2023-03-01T05:18:57;19.40;31.90
7234;DHT22;3658;47.992;10.158;2023-03-01T05:21:25;19.40;31.90
7234;DHT22;3658;47.992;10.158;2023-03-01T05:23:52;19.40;32.00
7234;DHT22;3658;47.992;10.158;2023-03-01T05:26:20;19.40;32.70
7234;DHT22;3658;47.992;10.158;2023-03-01T05:28:52;19.40;33.00
7234;DHT22;3658;47.992;10.158;2023-03-01T05:31:24;19.40;33.20
7234;DHT22;3658;47.992;10.158;2023-03-01T05:33:52;19.40;33.50
7234;DHT22;3658;47.992;10.158;2023-03-01T05:36:19;19.40;33.50
7234;DHT22;3658;47.992;10.158;2023-03-01T05:38:46;19.40;33.70
7234;DHT22;3658;47.992;10.158;2023-03-01T05:41:14;19.40;33.90
7234;DHT22;3658;47.992;10.158;2023-03-01T05:43:42;19.40;33.90
7234;DHT22;3658;47.992;10.158;2023-03-01T05:46:10;19.40;34.00
7234;DHT22;3658;47.992;10.158;2023-03-01T05:48:38;19.40;34.00
7234;DHT22;3658;47.992;10.158;2023-03-01T05:51:07;19.40;34.10
7234;DHT22;3658;47.992;10.158;2023-03-01T05:53:34;19.40;34.20
7234;DHT22;3658;47.992;10.158;2023-03-01T05:56:03;19.40;34.20
7234;DHT22;3658;47.992;10.158;2023-03-01T05:58:31;19.40;34.20
7234;DHT22;3658;47.992;10.158;2023-03-01T06:00:58;19.50;34.30
7234;DHT22;3658;47.992;10.158;2023-03-01T06:03:25;19.50;34.30
7234;DHT22;3658;47.992;10.158;2023-03-01T06:05:56;19.50;34.20
7234;DHT22;3658;47.992;10.158;2023-03-01T06:08:24;19.50;34.30
7234;DHT22;3658;47.992;10.158;2023-03-01T06:10:52;19.50;34.40
7234;DHT22;3658;47.992;10.158;2023-03-01T06:13:19;19.50;34.40
7234;DHT22;3658;47.992;10.158;2023-03-01T06:15:46;19.50;34.40
7234;DHT22;3658;47.992;10.158;2023-03-01T06:18:13;19.50;34.50
7234;DHT22;3658;47.992;10.158;2023-03-01T06:20:40;19.50;34.50
7234;DHT22;3658;47.992;10.158;2023-03-01T06:23:07;19.50;34.50
7234;DHT22;3658;47.992;10.158;2023-03-01T06:25:36;19.50;34.50
7234;DHT22;3658;47.992;10.158;2023-03-01T06:28:03;19.50;34.50
7234;DHT22;3658;47.992;10.158;2023-03-01T06:30:31;19.50;34.60
7234;DHT22;3658;47.992;10.158;2023-03-01T06:32:58;19.50;34.60
7234;DHT22;3658;47.992;10.158;2023-03-01T06:35:26;19.50;34.60
7234;DHT22;3658;47.992;10.158;2023-03-01T06:37:55;19.50;34.60
7234;DHT22;3658;47.992;10.158;2023-03-01T06:40:23;19.50;34.70
7234;DHT22;3658;47.992;10.158;2023-03-01T06:42:52;19.50;35.00
7234;DHT22;3658;47.992;10.158;2023-03-01T06:45:20;19.50;34.80
7234;DHT22;3658;47.992;10.158;2023-03-01T06:47:47;19.50;34.80
7234;DHT22;3658;47.992;10.158;2023-03-01T06:50:18;19.50;34.80
7234;DHT22;3658;47.992;10.158;2023-03-01T06:52:45;19.40;34.80
7234;DHT22;3658;47.992;10.158;2023-03-01T06:55:14;19.40;35.00
7234;DHT22;3658;47.992;10.158;2023-03-01T06:57:41;19.50;34.90
7234;DHT22;3658;47.992;10.158;2023-03-01T07:00:11;19.40;34.90
7234;DHT22;3658;47.992;10.158;2023-03-01T07:02:38;19.40;35.00
7234;DHT22;3658;47.992;10.158;2023-03-01T07:05:05;19.40;35.00
7234;DHT22;3658;47.992;10.158;2023-03-01T07:07:32;19.40;34.90
7234;DHT22;3658;47.992;10.158;2023-03-01T07:09:59;19.40;34.80
7234;DHT22;3658;47.992;10.158;2023-03-01T07:12:26;19.40;34.80
7234;DHT22;3658;47.992;10.158;2023-03-01T07:14:53;19.40;34.80
7234;DHT22;3658;47.992;10.158;2023-03-01T07:17:21;19.40;34.80
7234;DHT22;3658;47.992;10.158;2023-03-01T07:19:48;19.40;34.70
7234;DHT22;3658;47.992;10.158;2023-03-01T07:22:15;19.40;34.80
7234;DHT22;3658;47.992;10.158;2023-03-01T07:24:42;19.40;34.80
7234;DHT22;3658;47.992;10.158;2023-03-01T07:27:09;19.30;34.50
7234;DHT22;3658;47.992;10.158;2023-03-01T07:29:36;19.30;34.60
7234;DHT22;3658;47.992;10.158;2023-03-01T07:32:04;19.30;34.50
7234;DHT22;3658;47.992;10.158;2023-03-01T07:34:33;19.30;34.40
7234;DHT22;3658;47.992;10.158;2023-03-01T07:37:00;19.30;34.40
7234;DHT22;3658;47.992;10.158;2023-03-01T07:39:27;19.30;34.50
7234;DHT22;3658;47.992;10.158;2023-03-01T07:41:54;19.30;34.40
7234;DHT22;3658;47.992;10.158;2023-03-01T07:44:21;19.30;34.40
7234;DHT22;3658;47.992;10.158;2023-03-01T07:46:48;19.30;34.40
7234;DHT22;3658;47.992;10.158;2023-03-01T07:49:15;19.30;34.30
7234;DHT22;3658;47.992;10.158;2023-03-01T07:51:44;19.30;34.20
7234;DHT22;3658;47.992;10.158;2023-03-01T07:54:11;19.30;34.20
7234;DHT22;3658;47.992;10.158;2023-03-01T07:56:38;19.30;34.20
7234;DHT22;3658;47.992;10.158;2023-03-01T07:59:06;19.30;34.20
7234;DHT22;3658;47.992;10.158;2023-03-01T08:01:33;19.30;34.20
7234;DHT22;3658;47.992;10.158;2023-03-01T08:04:00;19.30;34.10
7234;DHT22;3658;47.992;10.158;2023-03-01T08:06:27;19.30;34.10
7234;DHT22;3658;47.992;10.158;2023-03-01T08:08:55;19.20;34.00
7234;DHT22;3658;47.992;10.158;2023-03-01T08:11:23;19.20;34.10
7234;DHT22;3658;47.992;10.158;2023-03-01T08:13:50;19.20;34.00
7234;DHT22;3658;47.992;10.158;2023-03-01T08:16:17;19.20;34.00
7234;DHT22;3658;47.992;10.158;2023-03-01T08:18:44;19.20;34.00
7234;DHT22;3658;47.992;10.158;2023-03-01T08:21:12;19.20;34.60
7234;DHT22;3658;47.992;10.158;2023-03-01T08:26:56;19.30;34.00
7234;DHT22;3658;47.992;10.158;2023-03-01T08:29:23;19.20;33.90
7234;DHT22;3658;47.992;10.158;2023-03-01T08:31:51;19.20;33.90
7234;DHT22;3658;47.992;10.158;2023-03-01T08:34:18;19.20;33.80
7234;DHT22;3658;47.992;10.158;2023-03-01T08:36:46;19.20;33.80
7234;DHT22;3658;47.992;10.158;2023-03-01T08:39:14;19.20;33.90
7234;DHT22;3658;47.992;10.158;2023-03-01T08:41:42;19.20;33.80
7234;DHT22;3658;47.992;10.158;2023-03-01T08:44:13;19.20;33.80
7234;DHT22;3658;47.992;10.158;2023-03-01T08:46:42;19.20;33.80
7234;DHT22;3658;47.992;10.158;2023-03-01T08:49:12;19.20;33.80
7234;DHT22;3658;47.992;10.158;2023-03-01T08:51:40;19.20;33.80
7234;DHT22;3658;47.992;10.158;2023-03-01T08:54:10;19.20;33.70
7234;DHT22;3658;47.992;10.158;2023-03-01T08:56:38;19.20;33.80
7234;DHT22;3658;47.992;10.158;2023-03-01T08:59:06;19.20;33.70
7234;DHT22;3658;47.992;10.158;2023-03-01T09:01:34;19.20;33.70
7234;DHT22;3658;47.992;10.158;2023-03-01T09:04:02;19.20;33.70
7234;DHT22;3658;47.992;10.158;2023-03-01T09:06:30;19.20;33.70
7234;DHT22;3658;47.992;10.158;2023-03-01T09:08:58;19.20;33.70
7234;DHT22;3658;47.992;10.158;2023-03-01T09:11:25;19.20;33.70
7234;DHT22;3658;47.992;10.158;2023-03-01T09:13:52;19.20;33.70
7234;DHT22;3658;47.992;10.158;2023-03-01T09:16:21;19.20;33.70
7234;DHT22;3658;47.992;10.158;2023-03-01T09:18:51;19.20;33.70
7234;DHT22;3658;47.992;10.158;2023-03-01T09:21:19;19.20;33.70
7234;DHT22;3658;47.992;10.158;2023-03-01T09:23:48;19.20;33.70
7234;DHT22;3658;47.992;10.158;2023-03-01T09:26:17;19.20;33.70
7234;DHT22;3658;47.992;10.158;2023-03-01T09:28:47;19.20;33.70
7234;DHT22;3658;47.992;10.158;2023-03-01T09:31:16;19.10;33.60
7234;DHT22;3658;47.992;10.158;2023-03-01T09:33:44;19.10;33.60
7234;DHT22;3658;47.992;10.158;2023-03-01T09:36:15;19.10;33.70
7234;DHT22;3658;47.992;10.158;2023-03-01T09:38:42;19.10;33.70
7234;DHT22;3658;47.992;10.158;2023-03-01T09:41:11;19.10;33.70
7234;DHT22;3658;47.992;10.158;2023-03-01T09:43:49;19.10;33.60
7234;DHT22;3658;47.992;10.158;2023-03-01T09:46:21;19.10;33.60
7234;DHT22;3658;47.992;10.158;2023-03-01T09:48:52;19.10;33.60
7234;DHT22;3658;47.992;10.158;2023-03-01T09:51:26;19.10;33.60
7234;DHT22;3658;47.992;10.158;2023-03-01T09:53:53;19.10;33.60
7234;DHT22;3658;47.992;10.158;2023-03-01T09:56:27;19.10;33.60
7234;DHT22;3658;47.992;10.158;2023-03-01T09:59:00;19.10;33.60
7234;DHT22;3658;47.992;10.158;2023-03-01T10:01:36;19.10;33.60
7234;DHT22;3658;47.992;10.158;2023-03-01T10:04:13;19.10;33.60
7234;DHT22;3658;47.992;10.158;2023-03-01T10:06:51;19.10;33.60
7234;DHT22;3658;47.992;10.158;2023-03-01T10:09:21;19.10;33.50
7234;DHT22;3658;47.992;10.158;2023-03-01T10:11:51;19.10;33.50
7234;DHT22;3658;47.992;10.158;2023-03-01T10:14:28;19.10;33.60
7234;DHT22;3658;47.992;10.158;2023-03-01T10:16:59;19.10;33.60
7234;DHT22;3658;47.992;10.158;2023-03-01T10:19:31;19.10;33.60
7234;DHT22;3658;47.992;10.158;2023-03-01T10:22:04;19.10;33.50
7234;DHT22;3658;47.992;10.158;2023-03-01T10:24:34;19.10;33.50
7234;DHT22;3658;47.992;10.158;2023-03-01T10:27:05;19.10;33.60
7234;DHT22;3658;47.992;10.158;2023-03-01T10:29:39;19.10;33.50
7234;DHT22;3658;47.992;10.158;2023-03-01T10:32:10;19.10;33.50
7234;DHT22;3658;47.992;10.158;2023-03-01T10:34:37;19.10;33.60
7234;DHT22;3658;47.992;10.158;2023-03-01T10:37:12;19.10;33.60
7234;DHT22;3658;47.992;10.158;2023-03-01T10:39:55;19.10;33.50
7234;DHT22;3658;47.992;10.158;2023-03-01T10:42:27;19.10;33.50
7234;DHT22;3658;47.992;10.158;2023-03-01T10:44:55;19.10;33.50
7234;DHT22;3658;47.992;10.158;2023-03-01T10:47:24;19.10;33.50
7234;DHT22;3658;47.992;10.158;2023-03-01T10:49:56;19.10;33.50
7234;DHT22;3658;47.992;10.158;2023-03-01T10:52:27;19.00;33.40
7234;DHT22;3658;47.992;10.158;2023-03-01T10:54:57;19.10;33.50
7234;DHT22;3658;47.992;10.158;2023-03-01T10:57:39;19.10;33.40
7234;DHT22;3658;47.992;10.158;2023-03-01T11:00:31;19.10;33.30
7234;DHT22;3658;47.992;10.158;2023-03-01T11:03:10;19.10;33.40
7234;DHT22;3658;47.992;10.158;2023-03-01T11:05:51;19.10;34.10
7234;DHT22;3658;47.992;10.158;2023-03-01T11:08:33;19.00;33.30
7234;DHT22;3658;47.992;10.158;2023-03-01T11:11:20;19.10;33.50
7234;DHT22;3658;47.992;10.158;2023-03-01T11:13:55;19.00;33.30
7234;DHT22;3658;47.992;10.158;2023-03-01T11:16:34;19.00;33.30
7234;DHT22;3658;47.992;10.158;2023-03-01T11:19:20;19.10;33.30
7234;DHT22;3658;47.992;10.158;2023-03-01T11:22:05;19.00;33.30
7234;DHT22;3658;47.992;10.158;2023-03-01T11:24:39;19.00;33.30
7234;DHT22;3658;47.992;10.158;2023-03-01T11:27:16;19.00;33.40
7234;DHT22;3658;47.992;10.158;2023-03-01T11:29:47;19.00;33.40
7234;DHT22;3658;47.992;10.158;2023-03-01T11:32:16;19.00;33.30
7234;DHT22;3658;47.992;10.158;2023-03-01T11:34:47;19.00;33.20
7234;DHT22;3658;47.992;10.158;2023-03-01T11:37:23;19.00;33.30
7234;DHT22;3658;47.992;10.158;2023-03-01T11:40:02;19.00;33.30
7234;DHT22;3658;47.992;10.158;2023-03-01T11:42:39;19.00;33.30
7234;DHT22;3658;47.992;10.158;2023-03-01T11:45:10;19.00;33.30
7234;DHT22;3658;47.992;10.158;2023-03-01T11:48:02;19.00;33.40
7234;DHT22;3658;47.992;10.158;2023-03-01T11:50:38;19.00;34.00
7234;DHT22;3658;47.992;10.158;2023-03-01T11:53:34;19.00;33.30
7234;DHT22;3658;47.992;10.158;2023-03-01T11:56:13;19.00;33.30
7234;DHT22;3658;47.992;10.158;2023-03-01T11:58:56;19.00;33.30
7234;DHT22;3658;47.992;10.158;2023-03-01T12:01:36;19.00;33.30
7234;DHT22;3658;47.992;10.158;2023-03-01T12:04:36;19.00;33.40
7234;DHT22;3658;47.992;10.158;2023-03-01T12:07:18;19.10;33.30
7234;DHT22;3658;47.992;10.158;2023-03-01T12:10:26;19.00;33.30
7234;DHT22;3658;47.992;10.158;2023-03-01T12:13:15;19.00;33.20
7234;DHT22;3658;47.992;10.158;2023-03-01T12:16:12;19.00;33.20
7234;DHT22;3658;47.992;10.158;2023-03-01T12:18:55;19.00;33.20
7234;DHT22;3658;47.992;10.158;2023-03-01T12:21:34;19.00;33.20
7234;DHT22;3658;47.992;10.158;2023-03-01T12:24:29;19.10;33.30
7234;DHT22;3658;47.992;10.158;2023-03-01T12:27:16;19.00;33.20
7234;DHT22;3658;47.992;10.158;2023-03-01T12:29:54;19.00;33.20
7234;DHT22;3658;47.992;10.158;2023-03-01T12:32:36;19.00;33.20
7234;DHT22;3658;47.992;10.158;2023-03-01T12:35:24;19.00;33.20
7234;DHT22;3658;47.992;10.158;2023-03-01T12:38:02;19.00;33.20
7234;DHT22;3658;47.992;10.158;2023-03-01T12:40:52;19.00;33.20
7234;DHT22;3658;47.992;10.158;2023-03-01T12:43:28;19.00;33.20
7234;DHT22;3658;47.992;10.158;2023-03-01T12:46:18;19.00;33.20
7234;DHT22;3658;47.992;10.158;2023-03-01T12:48:53;19.00;33.20
7234;DHT22;3658;47.992;10.158;2023-03-01T12:51:26;19.00;33.20
7234;DHT22;3658;47.992;10.158;2023-03-01T12:53:55;19.00;33.20
7234;DHT22;3658;47.992;10.158;2023-03-01T12:56:26;19.00;33.20
7234;DHT22;3658;47.992;10.158;2023-03-01T12:59:01;19.00;33.10
7234;DHT22;3658;47.992;10.158;2023-03-01T13:01:55;19.00;33.20
7234;DHT22;3658;47.992;10.158;2023-03-01T13:04:38;19.00;33.20
7234;DHT22;3658;47.992;10.158;2023-03-01T13:07:25;19.00;33.20
7234;DHT22;3658;47.992;10.158;2023-03-01T13:10:04;19.00;33.20
7234;DHT22;3658;47.992;10.158;2023-03-01T13:12:52;19.00;33.10
7234;DHT22;3658;47.992;10.158;2023-03-01T13:15:34;19.00;33.20
7234;DHT22;3658;47.992;10.158;2023-03-01T13:18:11;19.00;33.20
7234;DHT22;3658;47.992;10.158;2023-03-01T13:20:52;19.00;33.20
7234;DHT22;3658;47.992;10.158;2023-03-01T13:23:29;19.00;33.20
7234;DHT22;3658;47.992;10.158;2023-03-01T13:26:02;19.00;33.10
7234;DHT22;3658;47.992;10.158;2023-03-01T13:28:48;19.00;33.10
7234;DHT22;3658;47.992;10.158;2023-03-01T13:34:59;19.00;33.10
7234;DHT22;3658;47.992;10.158;2023-03-01T13:37:29;19.00;33.20
7234;DHT22;3658;47.992;10.158;2023-03-01T13:40:02;19.00;33.20
7234;DHT22;3658;47.992;10.158;2023-03-01T13:42:37;19.00;33.20
7234;DHT22;3658;47.992;10.158;2023-03-01T13:45:14;19.00;33.20
7234;DHT22;3658;47.992;10.158;2023-03-01T13:47:43;19.00;33.20
7234;DHT22;3658;47.992;10.158;2023-03-01T13:50:20;19.00;33.10
7234;DHT22;3658;47.992;10.158;2023-03-01T13:52:52;19.00;33.20
7234;DHT22;3658;47.992;10.158;2023-03-01T13:55:24;19.00;33.20
7234;DHT22;3658;47.992;10.158;2023-03-01T13:57:56;19.00;33.20
7234;DHT22;3658;47.992;10.158;2023-03-01T14:00:32;19.00;33.20
7234;DHT22;3658;47.992;10.158;2023-03-01T14:03:10;19.00;33.20
7234;DHT22;3658;47.992;10.158;2023-03-01T14:05:40;19.00;33.20
7234;DHT22;3658;47.992;10.158;2023-03-01T14:08:22;19.00;33.90
7234;DHT22;3658;47.992;10.158;2023-03-01T14:14:10;19.00;33.20
7234;DHT22;3658;47.992;10.158;2023-03-01T14:16:49;19.00;33.20
7234;DHT22;3658;47.992;10.158;2023-03-01T14:19:20;19.00;33.20
7234;DHT22;3658;47.992;10.158;2023-03-01T14:22:01;19.00;33.20
7234;DHT22;3658;47.992;10.158;2023-03-01T14:24:30;19.00;33.20
7234;DHT22;3658;47.992;10.158;2023-03-01T14:27:00;18.90;33.20
7234;DHT22;3658;47.992;10.158;2023-03-01T14:29:34;19.00;33.90
7234;DHT22;3658;47.992;10.158;2023-03-01T14:32:10;19.00;33.20
7234;DHT22;3658;47.992;10.158;2023-03-01T14:34:42;18.90;33.20
7234;DHT22;3658;47.992;10.158;2023-03-01T14:37:19;19.00;33.30
7234;DHT22;3658;47.992;10.158;2023-03-01T14:39:46;19.00;33.20
7234;DHT22;3658;47.992;10.158;2023-03-01T14:42:14;19.00;33.20
7234;DHT22;3658;47.992;10.158;2023-03-01T14:44:47;19.00;33.20
7234;DHT22;3658;47.992;10.158;2023-03-01T14:47:19;19.00;33.20
7234;DHT22;3658;47.992;10.158;2023-03-01T14:49:54;19.00;33.20
7234;DHT22;3658;47.992;10.158;2023-03-01T14:52:30;19.00;33.10
7234;DHT22;3658;47.992;10.158;2023-03-01T14:54:59;19.00;33.20
7234;DHT22;3658;47.992;10.158;2023-03-01T14:57:29;19.00;33.20
7234;DHT22;3658;47.992;10.158;2023-03-01T14:59:59;19.00;33.20
7234;DHT22;3658;47.992;10.158;2023-03-01T15:02:30;18.90;33.20
7234;DHT22;3658;47.992;10.158;2023-03-01T15:05:00;18.90;33.80
7234;DHT22;3658;47.992;10.158;2023-03-01T15:07:33;19.00;33.30
7234;DHT22;3658;47.992;10.158;2023-03-01T15:10:04;18.90;33.20
7234;DHT22;3658;47.992;10.158;2023-03-01T15:12:38;19.00;33.20
7234;DHT22;3658;47.992;10.158;2023-03-01T15:15:32;19.00;33.20
7234;DHT22;3658;47.992;10.158;2023-03-01T15:18:01;18.90;33.20
7234;DHT22;3658;47.992;10.158;2023-03-01T15:20:30;19.00;33.20
7234;DHT22;3658;47.992;10.158;2023-03-01T15:23:02;18.90;33.20
7234;DHT22;3658;47.992;10.158;2023-03-01T15:25:31;18.90;33.20
7234;DHT22;3658;47.992;10.158;2023-03-01T15:28:00;19.00;33.20
7234;DHT22;3658;47.992;10.158;2023-03-01T15:30:29;19.00;33.20
7234;DHT22;3658;47.992;10.158;2023-03-01T15:33:20;18.90;33.10
7234;DHT22;3658;47.992;10.158;2023-03-01T15:35:48;19.00;33.20
7234;DHT22;3658;47.992;10.158;2023-03-01T15:38:32;19.00;33.20
7234;DHT22;3658;47.992;10.158;2023-03-01T15:41:01;19.00;33.10
7234;DHT22;3658;47.992;10.158;2023-03-01T15:43:41;18.90;33.70
7234;DHT22;3658;47.992;10.158;2023-03-01T15:46:28;18.90;33.10
7234;DHT22;3658;47.992;10.158;2023-03-01T15:48:57;19.00;33.20
7234;DHT22;3658;47.992;10.158;2023-03-01T15:51:32;18.90;33.10
7234;DHT22;3658;47.992;10.158;2023-03-01T15:54:04;19.00;33.10
7234;DHT22;3658;47.992;10.158;2023-03-01T15:56:32;18.90;33.10
7234;DHT22;3658;47.992;10.158;2023-03-01T15:59:00;19.00;33.10
7234;DHT22;3658;47.992;10.158;2023-03-01T16:01:28;18.90;33.50
7234;DHT22;3658;47.992;10.158;2023-03-01T16:03:55;19.00;33.10
7234;DHT22;3658;47.992;10.158;2023-03-01T16:06:24;18.90;33.10
7234;DHT22;3658;47.992;10.158;2023-03-01T16:08:51;19.00;33.20
7234;DHT22;3658;47.992;10.158;2023-03-01T16:11:20;18.90;33.10
7234;DHT22;3658;47.992;10.158;2023-03-01T16:13:48;18.90;33.10
7234;DHT22;3658;47.992;10.158;2023-03-01T16:16:16;19.00;33.20
7234;DHT22;3658;47.992;10.158;2023-03-01T16:18:44;19.00;33.10
7234;DHT22;3658;47.992;10.158;2023-03-01T16:21:18;19.00;33.10